sensor_id;sensor_type;location;lat;lon;timestamp;temperature;humidity
19168;DHT22;9716;53.114;18.040;2023-02-12T00:01:18;1.50;99.90
19168;DHT22;9716;53.114;18.040;2023-02-12T00:03:47;1.50;99.90
19168;DHT22;9716;53.114;18.040;2023-02-12T00:06:16;1.50;99.90
19168;DHT22;9716;53.114;18.040;2023-02-12T00:08:48;1.50;99.90
19168;DHT22;9716;53.114;18.040;2023-02-12T00:11:19;1.50;99.90
19168;DHT22;9716;53.114;18.040;2023-02-12T00:13:48;1.50;99.90
19168;DHT22;9716;53.114;18.040;2023-02-12T00:16:20;1.40;99.90
19168;DHT22;9716;53.114;18.040;2023-02-12T00:18:51;1.40;99.90
19168;DHT22;9716;53.114;18.040;2023-02-12T00:21:19;1.40;99.90
19168;DHT22;9716;53.114;18.040;2023-02-12T00:23:48;1.30;99.90
19168;DHT22;9716;53.114;18.040;2023-02-12T00:26:19;1.30;99.90
19168;DHT22;9716;53.114;18.040;2023-02-12T00:28:48;1.30;99.90
19168;DHT22;9716;53.114;18.040;2023-02-12T00:31:20;1.20;99.90
19168;DHT22;9716;53.114;18.040;2023-02-12T00:33:49;1.20;99.90
19168;DHT22;9716;53.114;18.040;2023-02-12T00:36:22;1.20;99.90
19168;DHT22;9716;53.114;18.040;2023-02-12T00:38:52;1.20;99.90
19168;DHT22;9716;53.114;18.040;2023-02-12T00:41:21;1.20;99.90
19168;DHT22;9716;53.114;18.040;2023-02-12T00:43:50;1.20;99.90
19168;DHT22;9716;53.114;18.040;2023-02-12T00:46:20;1.20;99.90
19168;DHT22;9716;53.114;18.040;2023-02-12T00:48:48;1.10;99.90
19168;DHT22;9716;53.114;18.040;2023-02-12T00:51:17;1.10;99.90
19168;DHT22;9716;53.114;18.040;2023-02-12T00:53:45;1.10;99.90
19168;DHT22;9716;53.114;18.040;2023-02-12T00:56:32;1.10;99.90
19168;DHT22;9716;53.114;18.040;2023-02-12T00:59:00;1.00;99.90
19168;DHT22;9716;53.114;18.040;2023-02-12T01:01:30;1.00;99.90
19168;DHT22;9716;53.114;18.040;2023-02-12T01:03:59;0.90;99.90
19168;DHT22;9716;53.114;18.040;2023-02-12T01:06:27;0.90;99.90
19168;DHT22;9716;53.114;18.040;2023-02-12T01:08:56;0.80;99.90
19168;DHT22;9716;53.114;18.040;2023-02-12T01:11:24;0.80;99.90
19168;DHT22;9716;53.114;18.040;2023-02-12T01:13:52;0.70;99.90
19168;DHT22;9716;53.114;18.040;2023-02-12T01:16:22;0.60;99.90
19168;DHT22;9716;53.114;18.040;2023-02-12T01:18:53;0.50;99.90
19168;DHT22;9716;53.114;18.040;2023-02-12T01:21:24;0.50;99.90
19168;DHT22;9716;53.114;18.040;2023-02-12T01:23:52;0.40;99.90
19168;DHT22;9716;53.114;18.040;2023-02-12T01:26:20;0.40;99.90
19168;DHT22;9716;53.114;18.040;2023-02-12T01:28:51;0.30;99.90
19168;DHT22;9716;53.114;18.040;2023-02-12T01:31:22;0.30;99.90
19168;DHT22;9716;53.114;18.040;2023-02-12T01:33:54;0.30;99.90
19168;DHT22;9716;53.114;18.040;2023-02-12T01:36:23;0.20;99.90
19168;DHT22;9716;53.114;18.040;2023-02-12T01:38:52;0.20;99.90
19168;DHT22;9716;53.114;18.040;2023-02-12T01:41:22;0.10;99.90
19168;DHT22;9716;53.114;18.040;2023-02-12T01:44:12;0.10;99.90
19168;DHT22;9716;53.114;18.040;2023-02-12T01:46:42;0.00;99.90
19168;DHT22;9716;53.114;18.040;2023-02-12T01:49:16;0.00;99.90
19168;DHT22;9716;53.114;18.040;2023-02-12T01:51:46;-0.10;99.90
19168;DHT22;9716;53.114;18.040;2023-02-12T01:54:16;-0.10;99.90
19168;DHT22;9716;53.114;18.040;2023-02-12T01:56:46;-0.10;99.90
19168;DHT22;9716;53.114;18.040;2023-02-12T01:59:15;-0.20;99.90
19168;DHT22;9716;53.114;18.040;2023-02-12T02:01:44;-0.20;99.90
19168;DHT22;9716;53.114;18.040;2023-02-12T02:04:16;-0.20;99.90
19168;DHT22;9716;53.114;18.040;2023-02-12T02:06:49;-0.20;99.90
19168;DHT22;9716;53.114;18.040;2023-02-12T02:09:18;-0.30;99.90
19168;DHT22;9716;53.114;18.040;2023-02-12T02:11:47;-0.30;99.90
19168;DHT22;9716;53.114;18.040;2023-02-12T02:14:33;-0.30;99.90
19168;DHT22;9716;53.114;18.040;2023-02-12T02:17:25;-0.30;99.90
19168;DHT22;9716;53.114;18.040;2023-02-12T02:20:20;-0.40;99.90
19168;DHT22;9716;53.114;18.040;2023-02-12T02:23:08;-0.40;99.90
19168;DHT22;9716;53.114;18.040;2023-02-12T02:26:04;-0.40;99.90
19168;DHT22;9716;53.114;18.040;2023-02-12T02:28:56;-0.50;99.90
19168;DHT22;9716;53.114;18.040;2023-02-12T02:31:31;-0.50;99.90
19168;DHT22;9716;53.114;18.040;2023-02-12T02:34:10;-0.60;99.90
19168;DHT22;9716;53.114;18.040;2023-02-12T02:36:41;-0.60;99.90
19168;DHT22;9716;53.114;18.040;2023-02-12T02:39:31;-0.70;99.90
19168;DHT22;9716;53.114;18.040;2023-02-12T02:42:08;-0.70;99.90
19168;DHT22;9716;53.114;18.040;2023-02-12T02:44:42;-0.70;99.90
19168;DHT22;9716;53.114;18.040;2023-02-12T02:47:14;-0.80;99.90
19168;DHT22;9716;53.114;18.040;2023-02-12T02:49:45;-0.80;99.90
19168;DHT22;9716;53.114;18.040;2023-02-12T02:52:18;-0.80;99.90
19168;DHT22;9716;53.114;18.040;2023-02-12T02:54:49;-0.80;99.90
19168;DHT22;9716;53.114;18.040;2023-02-12T02:57:25;-0.80;99.90
19168;DHT22;9716;53.114;18.040;2023-02-12T02:59:59;-0.80;99.90
19168;DHT22;9716;53.114;18.040;2023-02-12T03:02:35;-0.90;99.90
19168;DHT22;9716;53.114;18.040;2023-02-12T03:05:09;-0.90;99.90
19168;DHT22;9716;53.114;18.040;2023-02-12T03:07:43;-0.90;99.90
19168;DHT22;9716;53.114;18.040;2023-02-12T03:10:14;-0.90;99.90
19168;DHT22;9716;53.114;18.040;2023-02-12T03:12:48;-1.00;99.90
19168;DHT22;9716;53.114;18.040;2023-02-12T03:15:23;-1.00;99.90
19168;DHT22;9716;53.114;18.040;2023-02-12T03:17:57;-1.00;99.90
19168;DHT22;9716;53.114;18.040;2023-02-12T03:20:30;-1.10;99.90
19168;DHT22;9716;53.114;18.040;2023-02-12T03:23:03;-1.10;99.90
19168;DHT22;9716;53.114;18.040;2023-02-12T03:25:37;-1.10;99.90
19168;DHT22;9716;53.114;18.040;2023-02-12T03:28:12;-1.10;99.90
19168;DHT22;9716;53.114;18.040;2023-02-12T03:30:46;-1.20;99.90
19168;DHT22;9716;53.114;18.040;2023-02-12T03:33:21;-1.20;99.90
19168;DHT22;9716;53.114;18.040;2023-02-12T03:35:59;-1.20;99.90
19168;DHT22;9716;53.114;18.040;2023-02-12T03:38:35;-1.20;99.90
19168;DHT22;9716;53.114;18.040;2023-02-12T03:41:08;-1.20;99.90
19168;DHT22;9716;53.114;18.040;2023-02-12T03:43:44;-1.20;99.90
19168;DHT22;9716;53.114;18.040;2023-02-12T03:46:20;-1.30;99.90
19168;DHT22;9716;53.114;18.040;2023-02-12T03:48:58;-1.30;99.90
19168;DHT22;9716;53.114;18.040;2023-02-12T03:51:31;-1.30;99.90
19168;DHT22;9716;53.114;18.040;2023-02-12T03:54:01;-1.30;99.90
19168;DHT22;9716;53.114;18.040;2023-02-12T03:56:33;-1.30;99.90
19168;DHT22;9716;53.114;18.040;2023-02-12T03:59:06;-1.40;99.90
19168;DHT22;9716;53.114;18.040;2023-02-12T04:01:35;-1.40;99.90
19168;DHT22;9716;53.114;18.040;2023-02-12T04:04:06;-1.40;99.90
19168;DHT22;9716;53.114;18.040;2023-02-12T04:06:35;-1.50;99.90
19168;DHT22;9716;53.114;18.040;2023-02-12T04:09:06;-1.50;99.90
19168;DHT22;9716;53.114;18.040;2023-02-12T04:11:46;-1.50;99.90
19168;DHT22;9716;53.114;18.040;2023-02-12T04:14:25;-1.50;99.90
19168;DHT22;9716;53.114;18.040;2023-02-12T04:17:02;-1.50;99.90
19168;DHT22;9716;53.114;18.040;2023-02-12T04:19:39;-1.60;99.90
19168;DHT22;9716;53.114;18.040;2023-02-12T04:22:24;-1.60;99.90
19168;DHT22;9716;53.114;18.040;2023-02-12T04:25:04;-1.50;99.90
19168;DHT22;9716;53.114;18.040;2023-02-12T04:27:36;-1.60;99.90
19168;DHT22;9716;53.114;18.040;2023-02-12T04:30:13;-1.60;99.90
19168;DHT22;9716;53.114;18.040;2023-02-12T04:32:47;-1.60;99.90
19168;DHT22;9716;53.114;18.040;2023-02-12T04:35:22;-1.60;99.90
19168;DHT22;9716;53.114;18.040;2023-02-12T04:37:56;-1.60;99.90
19168;DHT22;9716;53.114;18.040;2023-02-12T04:40:27;-1.70;99.90
19168;DHT22;9716;53.114;18.040;2023-02-12T04:42:56;-1.70;99.90
19168;DHT22;9716;53.114;18.040;2023-02-12T04:45:27;-1.70;99.90
19168;DHT22;9716;53.114;18.040;2023-02-12T04:47:56;-1.70;99.90
19168;DHT22;9716;53.114;18.040;2023-02-12T04:50:29;-1.70;99.90
19168;DHT22;9716;53.114;18.040;2023-02-12T04:53:03;-1.60;99.90
19168;DHT22;9716;53.114;18.040;2023-02-12T04:55:32;-1.60;99.90
19168;DHT22;9716;53.114;18.040;2023-02-12T04:58:00;-1.60;99.90
19168;DHT22;9716;53.114;18.040;2023-02-12T05:00:29;-1.60;99.90
19168;DHT22;9716;53.114;18.040;2023-02-12T05:02:57;-1.60;99.90
19168;DHT22;9716;53.114;18.040;2023-02-12T05:05:27;-1.70;99.90
19168;DHT22;9716;53.114;18.040;2023-02-12T05:07:55;-1.60;99.90
19168;DHT22;9716;53.114;18.040;2023-02-12T05:10:24;-1.60;99.90
19168;DHT22;9716;53.114;18.040;2023-02-12T05:12:52;-1.60;99.90
19168;DHT22;9716;53.114;18.040;2023-02-12T05:15:21;-1.70;99.90
19168;DHT22;9716;53.114;18.040;2023-02-12T05:17:49;-1.70;99.90
19168;DHT22;9716;53.114;18.040;2023-02-12T05:20:19;-1.70;99.90
19168;DHT22;9716;53.114;18.040;2023-02-12T05:22:51;-1.80;99.90
19168;DHT22;9716;53.114;18.040;2023-02-12T05:25:21;-1.80;99.90
19168;DHT22;9716;53.114;18.040;2023-02-12T05:27:49;-1.80;99.90
19168;DHT22;9716;53.114;18.040;2023-02-12T05:30:18;-1.80;99.90
19168;DHT22;9716;53.114;18.040;2023-02-12T05:32:46;-1.70;99.90
19168;DHT22;9716;53.114;18.040;2023-02-12T05:35:15;-1.70;99.90
19168;DHT22;9716;53.114;18.040;2023-02-12T05:37:43;-1.60;99.90
19168;DHT22;9716;53.114;18.040;2023-02-12T05:40:14;-1.60;99.90
19168;DHT22;9716;53.114;18.040;2023-02-12T05:42:42;-1.60;99.90
19168;DHT22;9716;53.114;18.040;2023-02-12T05:45:11;-1.50;99.90
19168;DHT22;9716;53.114;18.040;2023-02-12T05:47:39;-1.50;99.90
19168;DHT22;9716;53.114;18.040;2023-02-12T05:50:09;-1.50;99.90
19168;DHT22;9716;53.114;18.040;2023-02-12T05:52:37;-1.50;99.90
19168;DHT22;9716;53.114;18.040;2023-02-12T05:55:07;-1.50;99.90
19168;DHT22;9716;53.114;18.040;2023-02-12T05:57:37;-1.50;99.90
19168;DHT22;9716;53.114;18.040;2023-02-12T06:00:07;-1.50;99.90
19168;DHT22;9716;53.114;18.040;2023-02-12T06:02:36;-1.50;99.90
19168;DHT22;9716;53.114;18.040;2023-02-12T06:05:05;-1.50;99.90
19168;DHT22;9716;53.114;18.040;2023-02-12T06:07:33;-1.50;99.90
19168;DHT22;9716;53.114;18.040;2023-02-12T06:10:03;-1.50;99.90
19168;DHT22;9716;53.114;18.040;2023-02-12T06:12:31;-1.60;99.90
19168;DHT22;9716;53.114;18.040;2023-02-12T06:15:01;-1.50;99.90
19168;DHT22;9716;53.114;18.040;2023-02-12T06:17:29;-1.60;99.90
19168;DHT22;9716;53.114;18.040;2023-02-12T06:19:58;-1.60;99.90
19168;DHT22;9716;53.114;18.040;2023-02-12T06:22:26;-1.60;99.90
19168;DHT22;9716;53.114;18.040;2023-02-12T06:24:55;-1.60;99.90
19168;DHT22;9716;53.114;18.040;2023-02-12T06:27:24;-1.60;99.90
19168;DHT22;9716;53.114;18.040;2023-02-12T06:29:52;-1.50;99.90
19168;DHT22;9716;53.114;18.040;2023-02-12T06:32:22;-1.50;99.90
19168;DHT22;9716;53.114;18.040;2023-02-12T06:34:50;-1.50;99.90
19168;DHT22;9716;53.114;18.040;2023-02-12T06:37:19;-1.40;99.90
19168;DHT22;9716;53.114;18.040;2023-02-12T06:39:47;-1.40;99.90
19168;DHT22;9716;53.114;18.040;2023-02-12T06:42:16;-1.30;99.90
19168;DHT22;9716;53.114;18.040;2023-02-12T06:44:44;-1.20;99.90
19168;DHT22;9716;53.114;18.040;2023-02-12T06:47:13;-1.20;99.90
19168;DHT22;9716;53.114;18.040;2023-02-12T06:49:43;-1.10;99.90
19168;DHT22;9716;53.114;18.040;2023-02-12T06:52:12;-1.00;99.90
19168;DHT22;9716;53.114;18.040;2023-02-12T06:54:40;-0.90;99.90
19168;DHT22;9716;53.114;18.040;2023-02-12T06:57:09;-0.80;99.90
19168;DHT22;9716;53.114;18.040;2023-02-12T06:59:37;-0.70;99.90
19168;DHT22;9716;53.114;18.040;2023-02-12T07:02:07;-0.70;99.90
19168;DHT22;9716;53.114;18.040;2023-02-12T07:04:37;-0.60;99.90
19168;DHT22;9716;53.114;18.040;2023-02-12T07:07:07;-0.40;99.90
19168;DHT22;9716;53.114;18.040;2023-02-12T07:09:36;-0.30;99.90
19168;DHT22;9716;53.114;18.040;2023-02-12T07:12:04;-0.10;99.90
19168;DHT22;9716;53.114;18.040;2023-02-12T07:14:33;0.20;99.90
19168;DHT22;9716;53.114;18.040;2023-02-12T07:17:01;0.40;99.90
19168;DHT22;9716;53.114;18.040;2023-02-12T07:19:32;0.70;99.90
19168;DHT22;9716;53.114;18.040;2023-02-12T07:22:00;0.90;99.90
19168;DHT22;9716;53.114;18.040;2023-02-12T07:24:30;1.20;99.90
19168;DHT22;9716;53.114;18.040;2023-02-12T07:26:58;1.40;99.90
19168;DHT22;9716;53.114;18.040;2023-02-12T07:29:27;1.60;99.90
19168;DHT22;9716;53.114;18.040;2023-02-12T07:31:55;1.80;99.90
19168;DHT22;9716;53.114;18.040;2023-02-12T07:34:23;2.00;99.90
19168;DHT22;9716;53.114;18.040;2023-02-12T07:36:52;2.30;99.90
19168;DHT22;9716;53.114;18.040;2023-02-12T07:39:23;2.60;99.90
19168;DHT22;9716;53.114;18.040;2023-02-12T07:41:55;2.90;99.90
19168;DHT22;9716;53.114;18.040;2023-02-12T07:44:24;3.30;99.90
19168;DHT22;9716;53.114;18.040;2023-02-12T07:46:52;3.60;99.90
19168;DHT22;9716;53.114;18.040;2023-02-12T07:49:21;3.80;99.90
19168;DHT22;9716;53.114;18.040;2023-02-12T07:51:49;4.10;99.90
19168;DHT22;9716;53.114;18.040;2023-02-12T07:54:18;4.30;99.90
19168;DHT22;9716;53.114;18.040;2023-02-12T07:56:46;4.50;99.90
19168;DHT22;9716;53.114;18.040;2023-02-12T07:59:18;4.70;99.90
19168;DHT22;9716;53.114;18.040;2023-02-12T08:01:47;4.90;99.90
19168;DHT22;9716;53.114;18.040;2023-02-12T08:04:17;5.20;99.90
19168;DHT22;9716;53.114;18.040;2023-02-12T08:06:48;5.20;99.90
19168;DHT22;9716;53.114;18.040;2023-02-12T08:09:19;5.40;99.90
19168;DHT22;9716;53.114;18.040;2023-02-12T08:11:48;5.50;99.90
19168;DHT22;9716;53.114;18.040;2023-02-12T08:14:19;5.70;99.90
19168;DHT22;9716;53.114;18.040;2023-02-12T08:16:48;5.90;99.90
19168;DHT22;9716;53.114;18.040;2023-02-12T08:19:18;5.90;99.90
19168;DHT22;9716;53.114;18.040;2023-02-12T08:21:53;5.90;99.90
19168;DHT22;9716;53.114;18.040;2023-02-12T08:24:22;5.90;99.90
19168;DHT22;9716;53.114;18.040;2023-02-12T08:26:50;5.90;99.90
19168;DHT22;9716;53.114;18.040;2023-02-12T08:29:22;6.00;99.90
19168;DHT22;9716;53.114;18.040;2023-02-12T08:31:54;6.00;99.90
19168;DHT22;9716;53.114;18.040;2023-02-12T08:34:25;6.10;99.90
19168;DHT22;9716;53.114;18.040;2023-02-12T08:36:55;6.20;99.90
19168;DHT22;9716;53.114;18.040;2023-02-12T08:39:25;6.30;99.90
19168;DHT22;9716;53.114;18.040;2023-02-12T08:41:54;6.50;99.90
19168;DHT22;9716;53.114;18.040;2023-02-12T08:44:25;6.50;99.90
19168;DHT22;9716;53.114;18.040;2023-02-12T08:46:53;6.50;99.90
19168;DHT22;9716;53.114;18.040;2023-02-12T08:49:24;6.60;99.90
19168;DHT22;9716;53.114;18.040;2023-02-12T08:51:54;6.70;99.90
19168;DHT22;9716;53.114;18.040;2023-02-12T08:54:24;6.80;99.90
19168;DHT22;9716;53.114;18.040;2023-02-12T08:56:55;6.90;99.90
19168;DHT22;9716;53.114;18.040;2023-02-12T08:59:25;7.00;99.90
19168;DHT22;9716;53.114;18.040;2023-02-12T09:01:54;7.10;99.90
19168;DHT22;9716;53.114;18.040;2023-02-12T09:04:25;7.20;99.90
19168;DHT22;9716;53.114;18.040;2023-02-12T09:06:54;7.30;99.90
19168;DHT22;9716;53.114;18.040;2023-02-12T09:09:23;7.30;99.90
19168;DHT22;9716;53.114;18.040;2023-02-12T09:11:51;7.30;99.90
19168;DHT22;9716;53.114;18.040;2023-02-12T09:14:20;7.10;99.90
19168;DHT22;9716;53.114;18.040;2023-02-12T09:16:52;7.00;99.90
19168;DHT22;9716;53.114;18.040;2023-02-12T09:19:24;6.80;99.90
19168;DHT22;9716;53.114;18.040;2023-02-12T09:21:53;6.70;99.90
19168;DHT22;9716;53.114;18.040;2023-02-12T09:24:24;6.60;99.90
19168;DHT22;9716;53.114;18.040;2023-02-12T09:26:54;6.50;99.90
19168;DHT22;9716;53.114;18.040;2023-02-12T09:29:22;6.40;99.90
19168;DHT22;9716;53.114;18.040;2023-02-12T09:31:52;6.30;99.90
19168;DHT22;9716;53.114;18.040;2023-02-12T09:34:21;6.30;99.90
19168;DHT22;9716;53.114;18.040;2023-02-12T09:36:49;6.30;99.90
19168;DHT22;9716;53.114;18.040;2023-02-12T09:39:18;6.30;99.90
19168;DHT22;9716;53.114;18.040;2023-02-12T09:42:19;6.30;99.90
19168;DHT22;9716;53.114;18.040;2023-02-12T09:44:59;6.40;99.90
19168;DHT22;9716;53.114;18.040;2023-02-12T09:47:37;6.50;99.90
19168;DHT22;9716;53.114;18.040;2023-02-12T09:50:32;6.50;99.90
19168;DHT22;9716;53.114;18.040;2023-02-12T09:53:04;6.60;99.90
19168;DHT22;9716;53.114;18.040;2023-02-12T09:55:33;6.80;99.90
19168;DHT22;9716;53.114;18.040;2023-02-12T09:58:10;6.80;99.90
19168;DHT22;9716;53.114;18.040;2023-02-12T10:00:40;6.90;99.90
19168;DHT22;9716;53.114;18.040;2023-02-12T10:03:12;6.90;99.90
19168;DHT22;9716;53.114;18.040;2023-02-12T10:05:46;6.80;99.90
19168;DHT22;9716;53.114;18.040;2023-02-12T10:08:39;6.80;99.90
19168;DHT22;9716;53.114;18.040;2023-02-12T10:11:27;6.70;99.90
19168;DHT22;9716;53.114;18.040;2023-02-12T10:14:04;6.60;99.90
19168;DHT22;9716;53.114;18.040;2023-02-12T10:16:47;6.50;99.90
19168;DHT22;9716;53.114;18.040;2023-02-12T10:19:30;6.40;99.90
19168;DHT22;9716;53.114;18.040;2023-02-12T10:22:07;6.30;99.90
19168;DHT22;9716;53.114;18.040;2023-02-12T10:24:55;6.30;99.90
19168;DHT22;9716;53.114;18.040;2023-02-12T10:27:35;6.20;99.90
19168;DHT22;9716;53.114;18.040;2023-02-12T10:30:13;6.20;99.90
19168;DHT22;9716;53.114;18.040;2023-02-12T10:32:45;6.20;99.90
19168;DHT22;9716;53.114;18.040;2023-02-12T10:35:17;6.20;99.90
19168;DHT22;9716;53.114;18.040;2023-02-12T10:37:52;6.20;99.90
19168;DHT22;9716;53.114;18.040;2023-02-12T10:40:24;6.20;99.90
19168;DHT22;9716;53.114;18.040;2023-02-12T10:42:55;6.20;99.90
19168;DHT22;9716;53.114;18.040;2023-02-12T10:45:28;6.30;99.90
19168;DHT22;9716;53.114;18.040;2023-02-12T10:48:05;6.40;99.90
19168;DHT22;9716;53.114;18.040;2023-02-12T10:50:48;6.40;99.90
19168;DHT22;9716;53.114;18.040;2023-02-12T10:53:20;6.50;99.90
19168;DHT22;9716;53.114;18.040;2023-02-12T10:55:49;6.50;99.90
19168;DHT22;9716;53.114;18.040;2023-02-12T10:58:35;6.50;99.90
19168;DHT22;9716;53.114;18.040;2023-02-12T11:01:04;6.60;99.90
19168;DHT22;9716;53.114;18.040;2023-02-12T11:03:34;6.60;99.90
19168;DHT22;9716;53.114;18.040;2023-02-12T11:06:13;6.60;99.90
19168;DHT22;9716;53.114;18.040;2023-02-12T11:08:44;6.70;99.90
19168;DHT22;9716;53.114;18.040;2023-02-12T11:11:15;6.70;99.90
19168;DHT22;9716;53.114;18.040;2023-02-12T11:13:53;6.70;99.90
19168;DHT22;9716;53.114;18.040;2023-02-12T11:16:30;6.70;99.90
19168;DHT22;9716;53.114;18.040;2023-02-12T11:19:01;6.60;99.90
19168;DHT22;9716;53.114;18.040;2023-02-12T11:21:33;6.60;99.90
19168;DHT22;9716;53.114;18.040;2023-02-12T11:24:21;6.60;99.90
19168;DHT22;9716;53.114;18.040;2023-02-12T11:27:11;6.60;99.90
19168;DHT22;9716;53.114;18.040;2023-02-12T11:29:41;6.50;99.90
19168;DHT22;9716;53.114;18.040;2023-02-12T11:32:16;6.50;99.90
19168;DHT22;9716;53.114;18.040;2023-02-12T11:35:03;6.40;99.90
19168;DHT22;9716;53.114;18.040;2023-02-12T11:37:33;6.40;99.90
19168;DHT22;9716;53.114;18.040;2023-02-12T11:40:15;6.40;99.90
19168;DHT22;9716;53.114;18.040;2023-02-12T11:42:49;6.40;99.90
19168;DHT22;9716;53.114;18.040;2023-02-12T11:45:20;6.40;99.90
19168;DHT22;9716;53.114;18.040;2023-02-12T11:47:49;6.40;99.90
19168;DHT22;9716;53.114;18.040;2023-02-12T11:50:25;6.30;99.90
19168;DHT22;9716;53.114;18.040;2023-02-12T11:52:59;6.30;99.90
19168;DHT22;9716;53.114;18.040;2023-02-12T11:55:31;6.30;99.90
19168;DHT22;9716;53.114;18.040;2023-02-12T11:58:02;6.30;99.90
19168;DHT22;9716;53.114;18.040;2023-02-12T12:00:35;6.40;99.90
19168;DHT22;9716;53.114;18.040;2023-02-12T12:03:10;6.40;99.90
19168;DHT22;9716;53.114;18.040;2023-02-12T12:05:46;6.40;99.90
19168;DHT22;9716;53.114;18.040;2023-02-12T12:08:20;6.40;99.90
19168;DHT22;9716;53.114;18.040;2023-02-12T12:10:55;6.40;99.90
19168;DHT22;9716;53.114;18.040;2023-02-12T12:13:31;6.40;99.90
19168;DHT22;9716;53.114;18.040;2023-02-12T12:16:07;6.40;99.90
19168;DHT22;9716;53.114;18.040;2023-02-12T12:18:56;6.30;99.90
19168;DHT22;9716;53.114;18.040;2023-02-12T12:21:47;6.30;99.90
19168;DHT22;9716;53.114;18.040;2023-02-12T12:24:23;6.40;99.90
19168;DHT22;9716;53.114;18.040;2023-02-12T12:26:59;6.30;99.90
19168;DHT22;9716;53.114;18.040;2023-02-12T12:29:41;6.40;99.90
19168;DHT22;9716;53.114;18.040;2023-02-12T12:32:14;6.40;99.90
19168;DHT22;9716;53.114;18.040;2023-02-12T12:34:43;6.30;99.90
19168;DHT22;9716;53.114;18.040;2023-02-12T12:37:29;6.30;99.90
19168;DHT22;9716;53.114;18.040;2023-02-12T12:40:15;6.30;99.90
19168;DHT22;9716;53.114;18.040;2023-02-12T12:43:01;6.30;99.90
19168;DHT22;9716;53.114;18.040;2023-02-12T12:46:01;6.30;99.90
19168;DHT22;9716;53.114;18.040;2023-02-12T12:48:44;6.30;99.90
19168;DHT22;9716;53.114;18.040;2023-02-12T12:51:25;6.20;99.90
19168;DHT22;9716;53.114;18.040;2023-02-12T12:54:07;6.30;99.90
19168;DHT22;9716;53.114;18.040;2023-02-12T12:56:47;6.20;99.90
19168;DHT22;9716;53.114;18.040;2023-02-12T12:59:36;6.20;99.90
19168;DHT22;9716;53.114;18.040;2023-02-12T13:02:34;6.10;99.90
19168;DHT22;9716;53.114;18.040;2023-02-12T13:05:34;6.10;99.90
19168;DHT22;9716;53.114;18.040;2023-02-12T13:08:17;6.10;99.90
19168;DHT22;9716;53.114;18.040;2023-02-12T13:10:53;6.10;99.90
19168;DHT22;9716;53.114;18.040;2023-02-12T13:13:28;6.10;99.90
19168;DHT22;9716;53.114;18.040;2023-02-12T13:16:03;6.10;99.90
19168;DHT22;9716;53.114;18.040;2023-02-12T13:18:48;6.10;99.90
19168;DHT22;9716;53.114;18.040;2023-02-12T13:21:32;6.10;99.90
19168;DHT22;9716;53.114;18.040;2023-02-12T13:24:10;6.10;99.90
19168;DHT22;9716;53.114;18.040;2023-02-12T13:26:48;6.10;99.90
19168;DHT22;9716;53.114;18.040;2023-02-12T13:29:22;6.00;99.90
19168;DHT22;9716;53.114;18.040;2023-02-12T13:31:54;6.10;99.90
19168;DHT22;9716;53.114;18.040;2023-02-12T13:34:26;6.10;99.90
19168;DHT22;9716;53.114;18.040;2023-02-12T13:37:00;6.10;99.90
19168;DHT22;9716;53.114;18.040;2023-02-12T13:39:31;6.10;99.90
19168;DHT22;9716;53.114;18.040;2023-02-12T13:42:13;6.10;99.90
19168;DHT22;9716;53.114;18.040;2023-02-12T13:44:49;6.20;99.90
19168;DHT22;9716;53.114;18.040;2023-02-12T13:47:31;6.20;99.90
19168;DHT22;9716;53.114;18.040;2023-02-12T13:50:13;6.20;99.90
19168;DHT22;9716;53.114;18.040;2023-02-12T13:52:51;6.30;99.90
19168;DHT22;9716;53.114;18.040;2023-02-12T13:55:23;6.30;99.90
19168;DHT22;9716;53.114;18.040;2023-02-12T13:58:37;6.30;99.90
19168;DHT22;9716;53.114;18.040;2023-02-12T14:01:09;6.30;99.90
19168;DHT22;9716;53.114;18.040;2023-02-12T14:03:39;6.30;99.90
19168;DHT22;9716;53.114;18.040;2023-02-12T14:06:14;6.40;99.90
19168;DHT22;9716;53.114;18.040;2023-02-12T14:08:45;6.40;99.90
19168;DHT22;9716;53.114;18.040;2023-02-12T14:11:16;6.30;99.90
19168;DHT22;9716;53.114;18.040;2023-02-12T14:13:49;6.30;99.90
19168;DHT22;9716;53.114;18.040;2023-02-12T14:16:37;6.30;99.90
19168;DHT22;9716;53.114;18.040;2023-02-12T14:19:41;6.30;99.90
19168;DHT22;9716;53.114;18.040;2023-02-12T14:25:39;6.30;99.90
19168;DHT22;9716;53.114;18.040;2023-02-12T14:28:18;6.30;99.90
19168;DHT22;9716;53.114;18.040;2023-02-12T14:31:28;6.30;99.90
19168;DHT22;9716;53.114;18.040;2023-02-12T14:40:41;6.20;99.90
19168;DHT22;9716;53.114;18.040;2023-02-12T14:43:28;6.20;99.90
19168;DHT22;9716;53.114;18.040;2023-02-12T14:45:58;6.20;99.90
19168;DHT22;9716;53.114;18.040;2023-02-12T14:48:52;6.20;99.90
19168;DHT22;9716;53.114;18.040;2023-02-12T14:51:26;6.10;99.90
19168;DHT22;9716;53.114;18.040;2023-02-12T14:53:59;6.10;99.90
19168;DHT22;9716;53.114;18.040;2023-02-12T14:56:29;6.10;99.90
19168;DHT22;9716;53.114;18.040;2023-02-12T14:59:02;6.10;99.90
19168;DHT22;9716;53.114;18.040;2023-02-12T15:01:33;6.10;99.90
19168;DHT22;9716;53.114;18.040;2023-02-12T15:04:10;6.00;99.90
19168;DHT22;9716;53.114;18.040;2023-02-12T15:06:47;6.00;99.90
19168;DHT22;9716;53.114;18.040;2023-02-12T15:09:20;6.00;99.90
19168;DHT22;9716;53.114;18.040;2023-02-12T15:12:01;6.00;99.90
19168;DHT22;9716;53.114;18.040;2023-02-12T15:14:35;5.90;99.90
19168;DHT22;9716;53.114;18.040;2023-02-12T15:17:08;5.90;99.90
19168;DHT22;9716;53.114;18.040;2023-02-12T15:19:43;5.90;99.90
19168;DHT22;9716;53.114;18.040;2023-02-12T15:22:18;5.90;99.90
19168;DHT22;9716;53.114;18.040;2023-02-12T15:24:48;5.80;99.90
19168;DHT22;9716;53.114;18.040;2023-02-12T15:27:17;5.90;99.90
19168;DHT22;9716;53.114;18.040;2023-02-12T15:29:49;5.80;99.90
19168;DHT22;9716;53.114;18.040;2023-02-12T15:32:21;5.80;99.90
19168;DHT22;9716;53.114;18.040;2023-02-12T15:34:52;5.80;99.90
19168;DHT22;9716;53.114;18.040;2023-02-12T15:37:24;5.80;99.90
19168;DHT22;9716;53.114;18.040;2023-02-12T15:39:56;5.80;99.90
19168;DHT22;9716;53.114;18.040;2023-02-12T15:42:28;5.80;99.90
19168;DHT22;9716;53.114;18.040;2023-02-12T15:45:17;5.80;99.90
19168;DHT22;9716;53.114;18.040;2023-02-12T15:47:55;5.80;99.90
19168;DHT22;9716;53.114;18.040;2023-02-12T15:50:27;5.70;99.90
19168;DHT22;9716;53.114;18.040;2023-02-12T15:52:55;5.70;99.90
19168;DHT22;9716;53.114;18.040;2023-02-12T15:55:26;5.70;99.90
19168;DHT22;9716;53.114;18.040;2023-02-12T15:57:57;5.70;99.90
19168;DHT22;9716;53.114;18.040;2023-02-12T16:00:36;5.70;99.90
19168;DHT22;9716;53.114;18.040;2023-02-12T16:03:19;5.70;99.90
19168;DHT22;9716;53.114;18.040;2023-02-12T16:05:50;5.60;99.90
19168;DHT22;9716;53.114;18.040;2023-02-12T16:08:20;5.70;99.90
19168;DHT22;9716;53.114;18.040;2023-02-12T16:10:52;5.70;99.90
19168;DHT22;9716;53.114;18.040;2023-02-12T16:13:33;5.70;99.90
19168;DHT22;9716;53.114;18.040;2023-02-12T16:16:04;5.70;99.90
19168;DHT22;9716;53.114;18.040;2023-02-12T16:18:33;5.70;99.90
19168;DHT22;9716;53.114;18.040;2023-02-12T16:21:09;5.60;99.90
19168;DHT22;9716;53.114;18.040;2023-02-12T16:23:41;5.60;99.90
19168;DHT22;9716;53.114;18.040;2023-02-12T16:26:16;5.60;99.90
19168;DHT22;9716;53.114;18.040;2023-02-12T16:28:46;5.60;99.90
19168;DHT22;9716;53.114;18.040;2023-02-12T16:31:16;5.60;99.90